createdAt,value
2023-01-20T00:01:19.563Z,1.60
2023-01-20T00:03:46.056Z,1.60
2023-01-20T00:06:12.626Z,1.33
2023-01-20T00:08:39.083Z,1.30
2023-01-20T00:11:07.014Z,1.80
2023-01-20T00:13:34.319Z,1.77
2023-01-20T00:16:02.755Z,2.73
2023-01-20T00:18:29.494Z,2.60
2023-01-20T00:20:56.155Z,2.67
2023-01-20T00:23:22.576Z,2.40
2023-01-20T00:25:48.997Z,2.73
2023-01-20T00:28:16.840Z,2.53
2023-01-20T00:30:43.405Z,2.30
2023-01-20T00:33:09.802Z,2.93
2023-01-20T00:35:36.825Z,2.03
2023-01-20T00:38:03.216Z,2.40
2023-01-20T00:40:29.674Z,1.83
2023-01-20T00:42:56.303Z,2.17
2023-01-20T00:45:22.785Z,2.47
2023-01-20T00:47:49.163Z,1.60
2023-01-20T00:50:15.776Z,1.70
2023-01-20T00:52:42.239Z,1.60
2023-01-20T00:55:08.848Z,1.67
2023-01-20T00:57:35.308Z,1.80
2023-01-20T01:00:01.905Z,1.27
2023-01-20T01:02:28.438Z,1.77
2023-01-20T01:04:55.053Z,1.47
2023-01-20T01:07:21.544Z,1.97
2023-01-20T01:09:47.960Z,1.80
2023-01-20T01:12:14.433Z,1.80
2023-01-20T01:14:40.944Z,1.70
2023-01-20T01:17:07.373Z,1.87
2023-01-20T01:19:33.774Z,1.90
2023-01-20T01:22:00.213Z,1.47
2023-01-20T01:24:26.635Z,1.67
2023-01-20T01:26:53.393Z,1.50
2023-01-20T01:29:20.085Z,1.57
2023-01-20T01:31:46.566Z,1.60
2023-01-20T01:34:13.075Z,1.73
2023-01-20T01:36:39.469Z,1.77
2023-01-20T01:39:05.922Z,1.40
2023-01-20T01:41:32.582Z,1.50
2023-01-20T01:44:07.157Z,1.30
2023-01-20T01:46:33.750Z,1.30
2023-01-20T01:49:03.928Z,1.33
2023-01-20T01:51:33.707Z,2.10
2023-01-20T01:54:02.517Z,1.80
2023-01-20T01:56:29.864Z,2.20
2023-01-20T01:58:58.324Z,2.47
2023-01-20T02:01:25.926Z,2.27
2023-01-20T02:03:57.912Z,2.30
2023-01-20T02:06:25.647Z,1.50
2023-01-20T02:08:52.340Z,1.47
2023-01-20T02:11:20.526Z,1.53
2023-01-20T02:13:47.049Z,1.70
2023-01-20T02:16:16.605Z,1.70
2023-01-20T02:18:42.999Z,2.00
2023-01-20T02:21:09.519Z,2.10
2023-01-20T02:23:39.223Z,1.43
2023-01-20T02:26:05.675Z,1.87
2023-01-20T02:28:50.142Z,2.10
2023-01-20T02:31:25.493Z,1.60
2023-01-20T02:34:03.843Z,1.53
2023-01-20T02:36:56.456Z,1.90
2023-01-20T02:39:33.360Z,1.40
2023-01-20T02:41:59.832Z,1.67
2023-01-20T02:44:33.513Z,1.70
2023-01-20T02:47:02.622Z,1.60
2023-01-20T02:49:34.425Z,1.50
2023-01-20T02:52:30.724Z,1.60
2023-01-20T02:54:59.389Z,1.90
2023-01-20T02:57:29.313Z,1.77
2023-01-20T02:59:57.121Z,2.03
2023-01-20T03:02:25.872Z,1.50
2023-01-20T03:04:55.127Z,1.60
2023-01-20T03:07:23.235Z,1.70
2023-01-20T03:09:51.263Z,1.33
2023-01-20T03:12:22.285Z,1.40
2023-01-20T03:14:50.143Z,1.40
2023-01-20T03:17:16.983Z,1.70
2023-01-20T03:19:43.810Z,1.17
2023-01-20T03:22:10.344Z,1.40
2023-01-20T03:24:37.826Z,1.30
2023-01-20T03:27:04.853Z,1.37
2023-01-20T03:29:32.549Z,1.50
2023-01-20T03:32:00.241Z,1.70
2023-01-20T03:34:28.184Z,1.83
2023-01-20T03:36:54.824Z,1.70
2023-01-20T03:39:22.932Z,1.30
2023-01-20T03:41:52.417Z,1.60
2023-01-20T03:44:24.833Z,1.43
2023-01-20T03:46:57.226Z,1.30
2023-01-20T03:49:27.609Z,1.47
2023-01-20T03:51:54.043Z,1.67
2023-01-20T03:54:23.821Z,1.47
2023-01-20T03:57:10.542Z,1.60
2023-01-20T03:59:38.568Z,1.50
2023-01-20T04:02:06.552Z,1.70
2023-01-20T04:04:34.689Z,1.40
2023-01-20T04:07:01.403Z,1.77
2023-01-20T04:09:31.650Z,1.93
2023-01-20T04:11:58.934Z,1.30
2023-01-20T04:14:25.434Z,1.60
2023-01-20T04:16:53.461Z,1.60
2023-01-20T04:19:19.919Z,1.73
2023-01-20T04:21:49.582Z,1.53
2023-01-20T04:24:15.953Z,1.97
2023-01-20T04:26:42.616Z,1.73
2023-01-20T04:29:12.002Z,1.47
2023-01-20T04:31:39.391Z,1.70
2023-01-20T04:34:06.071Z,1.63
2023-01-20T04:36:33.978Z,1.77
2023-01-20T04:39:00.391Z,1.40
2023-01-20T04:41:26.868Z,1.37
2023-01-20T04:43:53.373Z,1.30
2023-01-20T04:46:19.857Z,1.73
2023-01-20T04:48:46.360Z,1.43
2023-01-20T04:51:12.876Z,1.40
2023-01-20T04:53:39.546Z,2.73
2023-01-20T04:56:10.852Z,2.40
2023-01-20T04:58:37.521Z,2.63
2023-01-20T05:01:04.009Z,2.40
2023-01-20T05:03:30.475Z,2.37
2023-01-20T05:05:56.963Z,2.43
2023-01-20T05:08:23.589Z,2.30
2023-01-20T05:10:50.029Z,2.13
2023-01-20T05:13:16.502Z,3.10
2023-01-20T05:15:43.889Z,1.87
2023-01-20T05:18:10.407Z,2.13
2023-01-20T05:20:36.936Z,2.10
2023-01-20T05:23:03.726Z,2.43
2023-01-20T05:25:30.259Z,2.20
2023-01-20T05:27:58.023Z,2.57
2023-01-20T05:30:24.448Z,3.27
2023-01-20T05:32:51.897Z,2.03
2023-01-20T05:35:18.544Z,3.20
2023-01-20T05:37:45.103Z,3.33
2023-01-20T05:40:12.008Z,2.97
2023-01-20T05:42:38.601Z,2.97
2023-01-20T05:45:05.273Z,2.63
2023-01-20T05:47:31.709Z,2.00
2023-01-20T05:49:58.215Z,1.67
2023-01-20T05:52:24.663Z,1.77
2023-01-20T05:54:51.148Z,2.10
2023-01-20T05:57:18.374Z,2.13
2023-01-20T05:59:47.687Z,1.97
2023-01-20T06:02:18.647Z,2.40
2023-01-20T06:07:13.642Z,4.13
2023-01-20T06:09:40.183Z,4.60
2023-01-20T06:12:06.670Z,4.83
2023-01-20T06:14:33.069Z,3.70
2023-01-20T06:16:59.727Z,3.60
2023-01-20T06:19:26.239Z,3.40
2023-01-20T06:21:53.537Z,2.93
2023-01-20T06:24:20.058Z,3.47
2023-01-20T06:26:46.541Z,3.00
2023-01-20T06:29:12.930Z,3.10
2023-01-20T06:31:39.791Z,3.20
2023-01-20T06:34:21.478Z,3.17
2023-01-20T06:36:47.952Z,3.03
2023-01-20T06:39:14.419Z,2.80
2023-01-20T06:41:40.840Z,3.00
2023-01-20T06:44:07.287Z,2.90
2023-01-20T06:46:33.829Z,3.53
2023-01-20T06:49:00.891Z,2.93
2023-01-20T06:51:28.811Z,4.93
2023-01-20T06:53:55.590Z,9.90
2023-01-20T06:56:22.372Z,11.13
2023-01-20T06:58:48.957Z,11.23
2023-01-20T07:01:18.498Z,9.10
2023-01-20T07:03:45.089Z,9.13
2023-01-20T07:06:20.322Z,9.50
2023-01-20T07:08:46.897Z,8.43
2023-01-20T07:11:13.481Z,7.67
2023-01-20T07:13:40.088Z,7.83
2023-01-20T07:16:08.875Z,9.33
2023-01-20T07:18:36.791Z,9.60
2023-01-20T07:21:03.654Z,10.80
2023-01-20T07:23:32.101Z,13.27
2023-01-20T07:26:02.470Z,13.03
2023-01-20T07:28:30.096Z,12.40
2023-01-20T07:30:56.757Z,11.20
2023-01-20T07:33:23.354Z,14.07
2023-01-20T07:35:53.496Z,15.30
2023-01-20T07:38:20.056Z,20.00
2023-01-20T07:40:46.509Z,16.83
2023-01-20T07:43:13.107Z,14.57
2023-01-20T07:45:39.610Z,13.47
2023-01-20T07:48:07.827Z,3.97
2023-01-20T07:50:37.394Z,4.77
2023-01-20T07:53:04.072Z,4.70
2023-01-20T07:55:30.699Z,4.93
2023-01-20T07:57:58.756Z,3.83
2023-01-20T08:00:25.260Z,5.63
2023-01-20T08:02:51.644Z,6.63
2023-01-20T08:05:18.266Z,6.27
2023-01-20T08:07:44.892Z,7.07
2023-01-20T08:10:11.430Z,7.90
2023-01-20T08:12:37.871Z,8.83
2023-01-20T08:15:04.688Z,10.00
2023-01-20T08:17:31.282Z,8.87
2023-01-20T08:19:57.708Z,7.10
2023-01-20T08:22:25.503Z,5.73
2023-01-20T08:24:51.928Z,5.63
2023-01-20T08:27:18.323Z,6.80
2023-01-20T08:29:44.832Z,6.17
2023-01-20T08:32:11.292Z,6.23
2023-01-20T08:34:37.739Z,4.97
2023-01-20T08:37:04.223Z,5.00
2023-01-20T08:39:30.671Z,5.40
2023-01-20T08:41:57.107Z,4.97
2023-01-20T08:44:23.588Z,5.57
2023-01-20T08:46:52.637Z,6.37
2023-01-20T08:49:21.758Z,4.10
2023-01-20T08:51:48.418Z,4.60
2023-01-20T08:54:15.446Z,4.00
2023-01-20T08:56:42.165Z,4.20
2023-01-20T08:59:08.639Z,4.37
2023-01-20T09:01:38.307Z,4.20
2023-01-20T09:04:07.166Z,4.60
2023-01-20T09:06:38.565Z,4.53
2023-01-20T09:09:05.247Z,4.83
2023-01-20T09:11:31.836Z,5.30
2023-01-20T09:13:58.386Z,5.57
2023-01-20T09:16:24.873Z,4.63
2023-01-20T09:18:51.417Z,4.83
2023-01-20T09:21:17.963Z,4.97
2023-01-20T09:23:47.825Z,4.87
2023-01-20T09:26:26.138Z,5.13
2023-01-20T09:29:09.718Z,4.97
2023-01-20T09:31:41.061Z,4.67
2023-01-20T09:34:07.677Z,4.27
2023-01-20T09:36:34.186Z,5.50
2023-01-20T09:39:19.221Z,4.67
2023-01-20T09:42:20.000Z,5.17
2023-01-20T09:44:46.385Z,5.00
2023-01-20T09:47:25.883Z,5.23
2023-01-20T09:50:14.429Z,4.57
2023-01-20T09:53:00.092Z,4.10
2023-01-20T09:55:30.400Z,4.90
2023-01-20T09:58:05.994Z,4.88
2023-01-20T10:00:33.778Z,5.07
2023-01-20T10:03:06.705Z,4.73
2023-01-20T10:05:37.274Z,4.90
2023-01-20T10:08:09.651Z,5.72
2023-01-20T10:11:02.296Z,4.40
2023-01-20T10:13:41.091Z,3.70
2023-01-20T10:16:09.921Z,4.13
2023-01-20T10:18:39.337Z,3.80
2023-01-20T10:21:12.425Z,3.57
2023-01-20T10:23:49.471Z,3.70
2023-01-20T10:26:18.919Z,3.53
2023-01-20T10:29:05.680Z,4.10
2023-01-20T10:31:34.803Z,4.30
2023-01-20T10:34:12.063Z,4.77
2023-01-20T10:36:40.194Z,4.90
2023-01-20T10:39:15.602Z,5.03
2023-01-20T10:41:45.450Z,6.30
2023-01-20T10:44:13.245Z,5.70
2023-01-20T10:46:48.876Z,4.87
2023-01-20T10:49:21.245Z,4.57
2023-01-20T10:51:54.113Z,5.20
2023-01-20T10:54:35.745Z,5.50
2023-01-20T10:57:03.991Z,4.57
2023-01-20T10:59:40.325Z,4.63
2023-01-20T11:02:40.025Z,4.60
2023-01-20T11:05:20.878Z,4.43
2023-01-20T11:07:47.827Z,4.43
2023-01-20T11:10:15.775Z,4.77
2023-01-20T11:12:43.454Z,4.93
2023-01-20T11:15:15.977Z,5.20
2023-01-20T11:17:42.460Z,4.60
2023-01-20T11:20:14.674Z,5.37
2023-01-20T11:22:45.215Z,5.17
2023-01-20T11:25:22.543Z,5.43
2023-01-20T11:27:49.330Z,5.57
2023-01-20T11:30:32.407Z,5.50
2023-01-20T11:33:08.055Z,5.40
2023-01-20T11:35:34.733Z,5.50
2023-01-20T11:38:20.647Z,5.77
2023-01-20T11:40:52.682Z,5.00
2023-01-20T11:43:29.199Z,5.40
2023-01-20T11:46:16.263Z,4.87
2023-01-20T11:48:43.851Z,4.67
2023-01-20T11:51:25.275Z,5.30
2023-01-20T11:54:05.992Z,4.70
2023-01-20T11:56:35.001Z,5.15
2023-01-20T11:59:03.274Z,5.17
2023-01-20T12:01:31.181Z,4.57
2023-01-20T12:04:03.626Z,4.90
2023-01-20T12:06:32.870Z,4.67
2023-01-20T12:09:15.553Z,4.70
2023-01-20T12:12:00.583Z,5.17
2023-01-20T12:14:32.804Z,4.60
2023-01-20T12:16:59.265Z,4.43
2023-01-20T12:19:30.047Z,5.20
2023-01-20T12:21:59.923Z,5.00
2023-01-20T12:24:35.429Z,5.00
2023-01-20T12:27:16.080Z,4.60
2023-01-20T12:29:45.992Z,4.53
2023-01-20T12:32:12.904Z,4.40
2023-01-20T12:34:39.429Z,4.90
2023-01-20T12:37:08.806Z,4.23
2023-01-20T12:39:42.746Z,4.30
2023-01-20T12:42:18.213Z,4.37
2023-01-20T12:44:48.501Z,5.07
2023-01-20T12:47:17.640Z,4.57
2023-01-20T12:50:03.105Z,4.97
2023-01-20T12:52:42.015Z,6.40
2023-01-20T12:55:14.535Z,6.93
2023-01-20T12:57:41.100Z,7.50
2023-01-20T13:00:19.423Z,6.00
2023-01-20T13:03:04.975Z,4.87
2023-01-20T13:05:34.547Z,4.73
2023-01-20T13:08:09.799Z,6.03
2023-01-20T13:10:39.664Z,5.50
2023-01-20T13:13:17.865Z,5.03
2023-01-20T13:15:44.330Z,4.97
2023-01-20T13:18:29.252Z,5.53
2023-01-20T13:20:55.949Z,5.50
2023-01-20T13:23:27.129Z,4.97
2023-01-20T13:28:24.138Z,5.77
2023-01-20T13:30:53.940Z,5.78
2023-01-20T13:33:29.610Z,5.60
2023-01-20T13:35:57.094Z,4.93
2023-01-20T13:38:24.794Z,5.30
2023-01-20T13:40:52.699Z,5.67
2023-01-20T13:43:22.311Z,4.70
2023-01-20T13:45:49.068Z,5.17
2023-01-20T13:48:15.650Z,4.93
2023-01-20T13:50:42.864Z,4.40
2023-01-20T13:53:14.390Z,4.63
2023-01-20T13:55:40.806Z,4.20
2023-01-20T13:58:13.433Z,4.33
2023-01-20T14:00:39.882Z,3.93
2023-01-20T14:03:23.001Z,4.67
2023-01-20T14:05:49.891Z,7.50
2023-01-20T14:08:16.675Z,4.97
2023-01-20T14:10:43.432Z,5.57
2023-01-20T14:13:18.147Z,6.23
2023-01-20T14:15:48.612Z,4.53
2023-01-20T14:18:16.277Z,4.70
2023-01-20T14:20:43.388Z,4.67
2023-01-20T14:23:24.599Z,4.70
2023-01-20T14:26:01.695Z,4.82
2023-01-20T14:28:28.146Z,4.60
2023-01-20T14:31:14.417Z,4.77
2023-01-20T14:33:45.261Z,4.83
2023-01-20T14:36:15.838Z,4.88
2023-01-20T14:38:56.348Z,4.97
2023-01-20T14:43:50.004Z,4.47
2023-01-20T14:46:16.843Z,5.00
2023-01-20T14:48:43.489Z,5.00
2023-01-20T14:51:12.180Z,4.87
2023-01-20T14:53:39.589Z,5.07
2023-01-20T14:56:07.679Z,5.10
2023-01-20T14:58:35.002Z,5.33
2023-01-20T15:01:03.007Z,5.13
2023-01-20T15:03:30.118Z,4.60
2023-01-20T15:06:00.394Z,5.47
2023-01-20T15:08:32.827Z,5.20
2023-01-20T15:11:14.530Z,5.00
2023-01-20T15:13:43.518Z,5.93
2023-01-20T15:16:12.844Z,5.20
2023-01-20T15:18:39.802Z,5.03
2023-01-20T15:21:18.852Z,5.10
2023-01-20T15:23:52.295Z,5.20
2023-01-20T15:26:27.510Z,4.93
2023-01-20T15:28:54.666Z,4.90
2023-01-20T15:31:21.442Z,5.23
2023-01-20T15:33:48.209Z,4.80
2023-01-20T15:36:36.959Z,5.47
2023-01-20T15:39:03.526Z,6.50
2023-01-20T15:41:29.929Z,6.03
2023-01-20T15:43:56.437Z,6.43
2023-01-20T15:46:24.480Z,6.83
2023-01-20T15:48:50.976Z,7.10
2023-01-20T15:51:19.120Z,7.57
2023-01-20T15:53:45.937Z,7.63
2023-01-20T15:56:23.880Z,7.93
2023-01-20T15:58:50.736Z,7.90
2023-01-20T16:01:18.444Z,7.93
2023-01-20T16:03:45.176Z,7.33
2023-01-20T16:06:12.420Z,8.30
2023-01-20T16:08:39.184Z,9.57
2023-01-20T16:11:06.055Z,10.73
2023-01-20T16:13:32.545Z,9.90
2023-01-20T16:15:59.137Z,8.30
2023-01-20T16:18:25.669Z,7.43
2023-01-20T16:20:52.186Z,9.13
2023-01-20T16:23:18.810Z,8.83
2023-01-20T16:25:45.294Z,8.27
2023-01-20T16:28:18.411Z,7.13
2023-01-20T16:30:45.134Z,7.63
2023-01-20T16:33:15.320Z,7.10
2023-01-20T16:35:42.192Z,6.90
2023-01-20T16:38:15.440Z,6.33
2023-01-20T16:40:45.302Z,6.50
2023-01-20T16:43:12.702Z,7.70
2023-01-20T16:45:39.194Z,6.47
2023-01-20T16:48:07.087Z,7.17
2023-01-20T16:50:33.506Z,6.40
2023-01-20T16:52:59.984Z,4.87
2023-01-20T16:55:26.647Z,5.83
2023-01-20T16:57:53.373Z,5.40
2023-01-20T17:00:20.714Z,6.00
2023-01-20T17:02:51.602Z,7.77
2023-01-20T17:05:22.737Z,7.00
2023-01-20T17:07:49.997Z,5.47
2023-01-20T17:10:17.435Z,5.77
2023-01-20T17:12:45.006Z,11.10
2023-01-20T17:15:12.276Z,7.40
2023-01-20T17:17:38.797Z,6.23
2023-01-20T17:20:11.969Z,6.30
2023-01-20T17:22:39.236Z,7.43
2023-01-20T17:25:07.132Z,6.53
2023-01-20T17:27:34.123Z,6.27
2023-01-20T17:30:01.154Z,5.97
2023-01-20T17:32:27.587Z,7.07
2023-01-20T17:34:53.982Z,7.63
2023-01-20T17:37:20.509Z,5.67
2023-01-20T17:39:47.755Z,4.63
2023-01-20T17:42:16.121Z,5.10
2023-01-20T17:44:44.030Z,4.97
2023-01-20T17:47:11.179Z,5.27
2023-01-20T17:49:37.694Z,4.60
2023-01-20T17:52:04.306Z,5.47
2023-01-20T17:54:30.799Z,4.50
2023-01-20T17:56:57.282Z,5.37
2023-01-20T17:59:26.165Z,4.57
2023-01-20T18:01:52.657Z,4.60
2023-01-20T18:04:19.212Z,4.47
2023-01-20T18:06:45.745Z,4.80
2023-01-20T18:09:13.961Z,4.37
2023-01-20T18:11:40.861Z,4.43
2023-01-20T18:14:07.571Z,5.03
2023-01-20T18:16:35.665Z,5.13
2023-01-20T18:19:02.480Z,4.70
2023-01-20T18:21:30.286Z,4.90
2023-01-20T18:23:57.235Z,5.30
2023-01-20T18:26:24.719Z,5.60
2023-01-20T18:28:54.628Z,5.43
2023-01-20T18:31:21.825Z,5.10
2023-01-20T18:33:49.526Z,5.80
2023-01-20T18:36:23.842Z,5.10
2023-01-20T18:38:54.095Z,5.97
2023-01-20T18:41:20.796Z,6.10
2023-01-20T18:43:47.623Z,7.10
2023-01-20T18:46:14.270Z,5.87
2023-01-20T18:48:41.445Z,6.33
2023-01-20T18:51:10.315Z,6.33
2023-01-20T18:53:37.165Z,6.20
2023-01-20T18:56:04.563Z,7.97
2023-01-20T18:58:31.086Z,5.67
2023-01-20T19:01:04.420Z,6.07
2023-01-20T19:03:31.085Z,7.07
2023-01-20T19:06:08.060Z,7.23
2023-01-20T19:08:34.752Z,7.30
2023-01-20T19:11:01.874Z,6.10
2023-01-20T19:13:28.383Z,5.50
2023-01-20T19:15:55.068Z,6.30
2023-01-20T19:18:21.514Z,6.30
2023-01-20T19:20:48.045Z,6.80
2023-01-20T19:23:14.641Z,6.60
2023-01-20T19:25:41.066Z,6.10
2023-01-20T19:28:09.167Z,6.40
2023-01-20T19:30:36.102Z,6.20
2023-01-20T19:33:02.669Z,5.57
2023-01-20T19:35:31.558Z,5.70
2023-01-20T19:37:57.975Z,6.30
2023-01-20T19:40:24.387Z,9.77
2023-01-20T19:42:52.498Z,7.73
2023-01-20T19:45:19.191Z,5.20
2023-01-20T19:47:45.680Z,5.90
2023-01-20T19:50:12.192Z,5.60
2023-01-20T19:52:38.601Z,6.63
2023-01-20T19:55:05.664Z,7.77
2023-01-20T19:57:32.133Z,6.90
2023-01-20T19:59:58.930Z,6.90
2023-01-20T20:02:27.491Z,7.90
2023-01-20T20:04:53.973Z,6.40
2023-01-20T20:07:20.480Z,7.20
2023-01-20T20:09:46.995Z,8.27
2023-01-20T20:12:13.702Z,6.20
2023-01-20T20:14:40.279Z,6.10
2023-01-20T20:17:06.833Z,6.27
2023-01-20T20:19:33.244Z,5.63
2023-01-20T20:21:59.669Z,5.83
2023-01-20T20:24:26.103Z,5.80
2023-01-20T20:26:52.638Z,5.13
2023-01-20T20:29:19.469Z,6.60
2023-01-20T20:31:46.063Z,6.33
2023-01-20T20:34:14.037Z,7.73
2023-01-20T20:36:40.566Z,6.53
2023-01-20T20:39:07.891Z,7.43
2023-01-20T20:41:36.483Z,6.23
2023-01-20T20:44:03.516Z,5.40
2023-01-20T20:46:29.985Z,5.50
2023-01-20T20:48:59.119Z,5.57
2023-01-20T20:51:25.893Z,4.60
2023-01-20T20:53:56.267Z,5.40
2023-01-20T20:56:23.163Z,4.40
2023-01-20T20:59:00.921Z,4.43
2023-01-20T21:01:28.432Z,4.93
2023-01-20T21:03:57.512Z,5.30
2023-01-20T21:06:24.128Z,6.77
2023-01-20T21:08:50.633Z,5.70
2023-01-20T21:11:17.137Z,5.90
2023-01-20T21:13:44.436Z,5.00
2023-01-20T21:16:13.980Z,5.43
2023-01-20T21:18:41.179Z,4.97
2023-01-20T21:21:08.927Z,5.93
2023-01-20T21:23:35.436Z,4.77
2023-01-20T21:26:06.033Z,5.83
2023-01-20T21:28:34.292Z,6.78
2023-01-20T21:31:00.881Z,8.70
2023-01-20T21:33:27.296Z,7.93
2023-01-20T21:35:54.117Z,8.10
2023-01-20T21:38:20.587Z,7.10
2023-01-20T21:40:59.795Z,7.03
2023-01-20T21:43:48.923Z,4.80
2023-01-20T21:46:15.694Z,6.70
2023-01-20T21:49:01.072Z,8.10
2023-01-20T21:51:46.110Z,7.03
2023-01-20T21:54:12.526Z,6.17
2023-01-20T21:56:39.043Z,7.27
2023-01-20T21:59:05.722Z,6.00
2023-01-20T22:01:32.155Z,5.97
2023-01-20T22:03:58.865Z,6.00
2023-01-20T22:06:25.356Z,5.63
2023-01-20T22:08:51.900Z,5.73
2023-01-20T22:11:18.483Z,6.83
2023-01-20T22:13:44.912Z,5.70
2023-01-20T22:16:11.401Z,5.70
2023-01-20T22:18:37.835Z,5.27
2023-01-20T22:21:05.188Z,5.60
2023-01-20T22:23:32.367Z,5.70
2023-01-20T22:25:59.231Z,5.17
2023-01-20T22:28:25.692Z,5.27
2023-01-20T22:30:52.171Z,5.03
2023-01-20T22:33:18.612Z,5.20
2023-01-20T22:35:45.066Z,4.90
2023-01-20T22:38:11.512Z,5.53
2023-01-20T22:40:38.013Z,4.17
2023-01-20T22:43:04.525Z,4.13
2023-01-20T22:45:30.991Z,5.03
2023-01-20T22:47:57.440Z,4.93
2023-01-20T22:50:23.878Z,4.90
2023-01-20T22:52:50.331Z,5.10
2023-01-20T22:55:16.785Z,4.80
2023-01-20T22:57:43.225Z,4.20
2023-01-20T23:00:12.173Z,4.53
2023-01-20T23:02:39.081Z,4.43
2023-01-20T23:05:05.691Z,4.10
2023-01-20T23:07:32.111Z,4.50
2023-01-20T23:09:58.671Z,4.33
2023-01-20T23:12:25.151Z,3.57
2023-01-20T23:15:00.657Z,4.10
2023-01-20T23:17:27.517Z,3.77
2023-01-20T23:19:54.415Z,3.53
2023-01-20T23:22:20.850Z,5.00
2023-01-20T23:24:47.458Z,4.10
2023-01-20T23:27:14.055Z,4.00
2023-01-20T23:29:40.492Z,3.33
2023-01-20T23:32:07.079Z,4.00
2023-01-20T23:34:33.526Z,3.60
2023-01-20T23:36:59.970Z,4.10
2023-01-20T23:39:26.527Z,3.37
2023-01-20T23:41:54.856Z,3.87
2023-01-20T23:44:21.304Z,3.70
2023-01-20T23:46:47.740Z,3.60
2023-01-20T23:49:14.167Z,3.57
2023-01-20T23:51:40.603Z,3.50
2023-01-20T23:54:08.466Z,3.80
2023-01-20T23:56:35.201Z,3.83
2023-01-20T23:59:01.746Z,3.80
